Time;durP1;ratioP1;P1;durP2;ratioP2;P2;SDS_P1;SDS_P2;PMS_P1;PMS_P2;Temp;Humidity;BMP_temperature;BMP_pressure;BME280_temperature;BME280_humidity;BME280_pressure;Samples;Min_cycle;Max_cycle;Signal;HPM_P1;HPM_P2
2023/03/24 00:01:21;;;;;;;2.00;1.30;;;15.90;99.90;;;;;;4970693;28;20472;-66
2023/03/24 00:03:47;;;;;;;1.88;1.00;;;15.90;99.90;;;;;;4979580;28;20175;-65
2023/03/24 00:06:13;;;;;;;1.60;1.05;;;15.90;99.90;;;;;;4990050;28;20200;-66
2023/03/24 00:08:40;;;;;;;2.00;1.15;;;15.90;99.90;;;;;;4993195;28;20223;-66
2023/03/24 00:11:10;;;;;;;1.45;1.00;;;15.90;99.90;;;;;;4984272;28;20167;-67
2023/03/24 00:13:39;;;;;;;3.10;1.27;;;15.90;99.90;;;;;;5001481;28;20215;-66
2023/03/24 00:16:08;;;;;;;1.40;1.02;;;15.90;99.90;;;;;;4992880;28;20572;-67
2023/03/24 00:18:36;;;;;;;1.73;1.20;;;15.90;99.90;;;;;;4993102;28;20176;-66
2023/03/24 00:21:03;;;;;;;1.83;1.10;;;15.90;99.90;;;;;;4977198;28;20259;-66
2023/03/24 00:23:35;;;;;;;1.77;1.10;;;15.80;99.90;;;;;;4976850;28;20200;-65
2023/03/24 00:26:14;;;;;;;1.52;1.20;;;15.90;99.90;;;;;;4992474;28;20211;-66
2023/03/24 00:28:44;;;;;;;1.13;1.00;;;15.90;99.90;;;;;;4982223;28;20310;-66
2023/03/24 00:31:13;;;;;;;1.60;1.17;;;15.90;99.90;;;;;;4992466;28;20199;-66
2023/03/24 00:33:42;;;;;;;1.80;1.15;;;15.90;99.90;;;;;;5012113;28;20195;-66
2023/03/24 00:36:13;;;;;;;1.60;1.20;;;15.90;99.90;;;;;;4993308;28;20282;-67
2023/03/24 00:38:40;;;;;;;1.58;1.05;;;15.90;99.90;;;;;;4977786;28;20181;-66
2023/03/24 00:41:09;;;;;;;1.85;1.20;;;15.80;99.90;;;;;;4985911;28;20191;-66
2023/03/24 00:43:35;;;;;;;1.42;1.10;;;15.90;99.90;;;;;;4975604;28;20191;-66
2023/03/24 00:46:04;;;;;;;1.63;1.20;;;15.90;99.90;;;;;;4984771;28;20183;-66
2023/03/24 00:48:31;;;;;;;2.65;1.10;;;15.90;99.90;;;;;;4975164;28;20200;-66
2023/03/24 00:51:01;;;;;;;1.95;1.15;;;15.90;99.90;;;;;;4971420;28;20204;-66
2023/03/24 00:53:30;;;;;;;1.45;1.10;;;15.90;99.90;;;;;;4985083;28;20199;-67
2023/03/24 00:55:59;;;;;;;1.55;1.20;;;15.90;99.90;;;;;;4976174;28;20180;-66
2023/03/24 00:58:33;;;;;;;2.03;1.20;;;15.90;99.90;;;;;;4992037;28;20180;-66
2023/03/24 01:00:59;;;;;;;1.52;1.30;;;15.90;99.90;;;;;;4976413;28;20199;-67
2023/03/24 01:03:33;;;;;;;3.35;1.48;;;15.90;99.90;;;;;;4966046;28;20277;-66
2023/03/24 01:06:04;;;;;;;2.55;1.20;;;15.90;99.90;;;;;;4983327;28;20192;-66
2023/03/24 01:08:32;;;;;;;1.95;1.30;;;16.00;99.90;;;;;;4958235;28;20230;-67
2023/03/24 01:11:03;;;;;;;1.60;1.40;;;16.00;99.90;;;;;;4991009;28;20197;-66
2023/03/24 01:13:29;;;;;;;1.30;1.10;;;15.90;99.90;;;;;;4975641;28;20203;-66
2023/03/24 01:15:55;;;;;;;1.45;1.10;;;16.00;99.90;;;;;;4990769;28;20175;-66
2023/03/24 01:18:23;;;;;;;1.75;1.08;;;16.00;99.90;;;;;;4991433;28;20180;-66
2023/03/24 01:20:50;;;;;;;1.27;1.17;;;16.00;99.90;;;;;;4992092;28;20206;-66
2023/03/24 01:23:20;;;;;;;1.63;1.17;;;16.00;99.90;;;;;;4976109;28;20239;-66
2023/03/24 01:25:49;;;;;;;1.20;1.10;;;16.00;99.90;;;;;;4992056;28;20207;-66
2023/03/24 01:28:20;;;;;;;1.95;1.30;;;16.00;99.90;;;;;;4982774;28;20200;-67
2023/03/24 01:30:46;;;;;;;2.58;1.55;;;16.10;99.90;;;;;;4975912;28;20222;-67
2023/03/24 01:33:11;;;;;;;2.35;1.40;;;16.10;99.90;;;;;;4991703;28;20223;-66
2023/03/24 01:35:37;;;;;;;2.88;1.80;;;16.10;99.90;;;;;;4986762;28;20188;-66
2023/03/24 01:38:08;;;;;;;1.52;1.13;;;16.10;99.90;;;;;;4986563;28;20286;-67
2023/03/24 01:40:39;;;;;;;2.58;1.38;;;16.10;99.90;;;;;;4974729;28;20214;-67
2023/03/24 01:43:14;;;;;;;1.60;1.20;;;16.10;99.90;;;;;;4987631;28;20184;-67
2023/03/24 01:45:40;;;;;;;1.75;1.35;;;16.10;99.90;;;;;;4991991;28;20266;-65
2023/03/24 01:48:09;;;;;;;1.45;1.17;;;16.10;99.90;;;;;;4975369;28;20231;-64
2023/03/24 01:50:39;;;;;;;3.65;1.23;;;16.10;99.90;;;;;;4990823;28;20207;-64
2023/03/24 01:53:10;;;;;;;1.45;1.35;;;16.10;99.90;;;;;;4991288;28;20203;-65
2023/03/24 01:55:36;;;;;;;1.67;1.20;;;16.10;99.90;;;;;;4975083;28;20172;-65
2023/03/24 01:58:02;;;;;;;1.73;1.30;;;16.10;99.90;;;;;;4976555;28;20172;-65
2023/03/24 02:00:29;;;;;;;1.70;1.35;;;16.10;99.90;;;;;;4975615;28;20206;-65
2023/03/24 02:03:05;;;;;;;1.65;1.20;;;16.00;99.90;;;;;;4991420;28;20179;-66
2023/03/24 02:05:36;;;;;;;1.92;1.30;;;16.10;99.90;;;;;;4989386;28;20353;-65
2023/03/24 02:08:12;;;;;;;1.33;1.17;;;16.10;99.90;;;;;;4963473;28;20203;-65
2023/03/24 02:10:38;;;;;;;1.42;1.20;;;16.10;99.90;;;;;;4988950;28;20167;-66
2023/03/24 02:13:05;;;;;;;1.58;1.30;;;16.10;99.90;;;;;;4975501;28;20212;-65
2023/03/24 02:15:35;;;;;;;2.67;1.27;;;16.10;99.90;;;;;;4990070;28;20266;-66
2023/03/24 02:18:24;;;;;;;1.92;1.50;;;16.10;99.90;;;;;;4978809;28;20168;-67
2023/03/24 02:21:21;;;;;;;1.77;1.50;;;16.10;99.90;;;;;;4964065;28;20216;-66
2023/03/24 02:24:14;;;;;;;1.77;1.40;;;16.10;99.90;;;;;;4976003;28;20238;-66
2023/03/24 02:26:51;;;;;;;1.58;1.38;;;16.10;99.90;;;;;;4991728;28;20200;-66
2023/03/24 02:29:45;;;;;;;2.60;1.48;;;16.10;99.90;;;;;;4979533;28;20168;-65
2023/03/24 02:32:38;;;;;;;1.55;1.40;;;16.10;99.90;;;;;;4983356;28;20236;-66
2023/03/24 02:35:15;;;;;;;2.20;1.45;;;16.20;99.90;;;;;;4975578;28;20236;-65
2023/03/24 02:37:44;;;;;;;2.15;1.60;;;16.10;99.90;;;;;;4988746;28;20180;-66
2023/03/24 02:40:28;;;;;;;2.53;1.52;;;16.20;99.90;;;;;;4979434;28;20234;-66
2023/03/24 02:42:54;;;;;;;2.28;1.60;;;16.20;99.90;;;;;;4998752;28;20210;-66
2023/03/24 02:46:00;;;;;;;2.28;1.52;;;16.20;99.90;;;;;;4984383;28;20220;-66
2023/03/24 02:48:45;;;;;;;1.92;1.50;;;16.20;99.90;;;;;;4979125;28;20180;-66
2023/03/24 02:51:27;;;;;;;1.70;1.30;;;16.20;99.90;;;;;;4994471;28;20226;-66
2023/03/24 02:53:59;;;;;;;1.60;1.45;;;16.30;99.90;;;;;;4994658;28;20199;-66
2023/03/24 02:56:39;;;;;;;3.83;2.00;;;16.30;99.90;;;;;;4985297;28;20176;-66
2023/03/24 02:59:08;;;;;;;1.92;1.73;;;16.30;99.90;;;;;;4974712;28;20192;-66
2023/03/24 03:01:42;;;;;;;2.15;1.60;;;16.30;99.90;;;;;;4995537;28;20353;-66
2023/03/24 03:04:12;;;;;;;2.80;1.80;;;16.30;99.90;;;;;;4998174;28;20172;-65
2023/03/24 03:06:42;;;;;;;1.77;1.58;;;16.30;99.90;;;;;;4988047;28;20227;-66
2023/03/24 03:09:14;;;;;;;2.90;1.90;;;16.30;99.90;;;;;;4990378;28;20329;-66
2023/03/24 03:11:43;;;;;;;1.98;1.70;;;16.30;99.90;;;;;;4971014;28;20208;-66
2023/03/24 03:14:14;;;;;;;2.50;1.83;;;16.30;99.90;;;;;;4994588;28;20283;-66
2023/03/24 03:16:52;;;;;;;2.33;2.00;;;16.30;99.90;;;;;;4976460;28;20180;-66
2023/03/24 03:19:32;;;;;;;2.13;1.70;;;16.40;99.90;;;;;;4973797;28;20257;-66
2023/03/24 03:22:03;;;;;;;2.70;1.88;;;16.40;99.90;;;;;;4981647;28;20190;-66
2023/03/24 03:24:36;;;;;;;2.28;1.90;;;16.40;99.90;;;;;;4993256;28;20227;-66
2023/03/24 03:27:13;;;;;;;2.80;2.30;;;16.40;99.90;;;;;;4982354;28;20184;-66
2023/03/24 03:29:45;;;;;;;2.85;2.20;;;16.40;99.90;;;;;;4976096;28;20187;-66
2023/03/24 03:32:16;;;;;;;2.85;2.03;;;16.40;99.90;;;;;;4979021;28;20215;-65
2023/03/24 03:34:54;;;;;;;2.45;2.10;;;16.40;99.90;;;;;;4993158;28;20198;-66
2023/03/24 03:37:52;;;;;;;2.90;2.20;;;16.40;99.90;;;;;;4978392;28;20171;-66
2023/03/24 03:40:33;;;;;;;2.30;1.92;;;16.40;99.90;;;;;;4975038;28;20176;-67
2023/03/24 03:42:59;;;;;;;3.95;2.00;;;16.40;99.90;;;;;;4968304;28;20173;-66
2023/03/24 03:45:27;;;;;;;3.00;2.03;;;16.40;99.90;;;;;;4968056;28;20220;-66
2023/03/24 03:47:53;;;;;;;2.85;2.00;;;16.40;99.90;;;;;;4990826;28;20184;-66
2023/03/24 03:50:21;;;;;;;2.58;1.77;;;16.40;99.90;;;;;;4994184;28;20196;-65
2023/03/24 03:52:47;;;;;;;2.70;2.00;;;16.40;99.90;;;;;;4994536;28;20192;-66
2023/03/24 03:55:13;;;;;;;2.67;2.00;;;16.40;99.90;;;;;;4958513;29;20202;-65
2023/03/24 03:57:39;;;;;;;2.10;1.70;;;16.40;99.90;;;;;;4979468;28;20231;-66
2023/03/24 04:00:14;;;;;;;1.70;1.50;;;16.40;99.90;;;;;;4977938;28;20179;-65
2023/03/24 04:02:46;;;;;;;1.90;1.50;;;16.40;99.90;;;;;;4977795;28;20184;-66
2023/03/24 04:05:33;;;;;;;2.53;1.60;;;16.40;99.90;;;;;;4977676;28;20204;-66
2023/03/24 04:08:09;;;;;;;1.90;1.67;;;16.40;99.90;;;;;;4977805;28;20176;-66
2023/03/24 04:10:50;;;;;;;1.80;1.60;;;16.40;99.90;;;;;;4990181;28;20239;-66
2023/03/24 04:13:55;;;;;;;2.08;1.65;;;16.40;99.90;;;;;;4993972;28;20210;-66
2023/03/24 04:16:53;;;;;;;1.90;1.50;;;16.30;99.90;;;;;;4993775;28;20176;-66
2023/03/24 04:19:27;;;;;;;1.90;1.63;;;16.40;99.90;;;;;;4956207;28;20238;-66
2023/03/24 04:22:17;;;;;;;2.13;1.50;;;16.40;99.90;;;;;;4993610;28;20188;-65
2023/03/24 04:24:56;;;;;;;2.63;1.73;;;16.40;99.90;;;;;;4993245;28;20208;-66
2023/03/24 04:27:37;;;;;;;1.52;1.42;;;16.40;99.90;;;;;;4991692;28;20230;-66
2023/03/24 04:30:41;;;;;;;1.90;1.50;;;16.40;99.90;;;;;;4992384;28;20195;-66
2023/03/24 04:33:37;;;;;;;1.52;1.10;;;16.40;99.90;;;;;;4949954;28;20320;-66
2023/03/24 04:36:26;;;;;;;1.60;1.20;;;16.40;99.90;;;;;;4986373;28;20214;-66
2023/03/24 04:38:53;;;;;;;1.80;1.52;;;16.40;99.90;;;;;;4993983;28;20200;-66
2023/03/24 04:41:21;;;;;;;1.60;1.27;;;16.40;99.90;;;;;;4971283;28;20214;-66
2023/03/24 04:43:47;;;;;;;2.00;1.30;;;16.40;99.90;;;;;;4975088;28;20195;-65
2023/03/24 04:46:16;;;;;;;1.80;1.30;;;16.40;99.90;;;;;;4973297;28;20316;-66
2023/03/24 04:48:43;;;;;;;1.77;1.40;;;16.40;99.90;;;;;;4987756;28;20200;-66
2023/03/24 04:51:15;;;;;;;2.75;1.30;;;16.40;99.90;;;;;;4968898;28;20219;-65
2023/03/24 04:53:44;;;;;;;2.55;1.60;;;16.40;99.90;;;;;;4976400;28;20192;-67
2023/03/24 04:56:37;;;;;;;1.25;1.15;;;16.40;99.90;;;;;;4985793;28;20180;-66
2023/03/24 04:59:08;;;;;;;1.75;1.20;;;16.40;99.90;;;;;;4976075;28;20574;-66
2023/03/24 05:01:36;;;;;;;2.28;1.35;;;16.50;99.90;;;;;;4975941;28;20282;-66
2023/03/24 05:04:03;;;;;;;1.60;1.15;;;16.50;99.90;;;;;;4993331;28;20180;-66
2023/03/24 05:06:29;;;;;;;1.42;1.20;;;16.50;99.90;;;;;;4984694;28;20179;-66
2023/03/24 05:08:57;;;;;;;1.70;1.10;;;16.50;99.90;;;;;;4963019;28;20177;-65
2023/03/24 05:11:28;;;;;;;1.27;1.05;;;16.50;99.90;;;;;;4995317;28;20233;-66
2023/03/24 05:13:56;;;;;;;1.80;1.30;;;16.50;99.90;;;;;;4975641;28;20184;-66
2023/03/24 05:16:22;;;;;;;1.48;1.10;;;16.50;99.90;;;;;;4992214;28;20198;-70
2023/03/24 05:18:48;;;;;;;1.30;1.15;;;16.50;99.90;;;;;;4992765;28;20196;-70
2023/03/24 05:21:13;;;;;;;2.20;1.40;;;16.50;99.90;;;;;;4983461;28;20194;-70
2023/03/24 05:23:39;;;;;;;2.25;0.93;;;16.50;99.90;;;;;;5006922;28;20186;-70
2023/03/24 05:26:07;;;;;;;1.73;1.05;;;16.50;99.90;;;;;;4994508;28;20404;-73
2023/03/24 05:28:33;;;;;;;1.60;0.90;;;16.50;99.90;;;;;;4975441;28;20279;-67
2023/03/24 05:31:00;;;;;;;1.77;0.80;;;16.30;99.90;;;;;;4991649;28;20231;-67
2023/03/24 05:33:30;;;;;;;2.58;0.90;;;16.00;99.90;;;;;;4978919;28;20235;-67
2023/03/24 05:35:56;;;;;;;1.50;0.88;;;15.70;99.90;;;;;;4968430;28;20210;-66
2023/03/24 05:38:21;;;;;;;1.27;0.80;;;15.50;99.90;;;;;;4991886;28;20192;-66
2023/03/24 05:40:47;;;;;;;1.55;0.93;;;15.20;99.90;;;;;;4991696;28;20175;-66
2023/03/24 05:43:13;;;;;;;1.35;0.80;;;15.10;99.90;;;;;;4992152;28;20262;-65
2023/03/24 05:45:39;;;;;;;1.35;0.80;;;14.90;99.90;;;;;;4975540;28;20180;-65
2023/03/24 05:48:07;;;;;;;3.00;1.13;;;14.80;99.90;;;;;;4991822;28;20180;-65
2023/03/24 05:50:33;;;;;;;1.25;0.70;;;14.70;99.90;;;;;;4976240;28;20385;-66
2023/03/24 05:53:00;;;;;;;1.35;0.70;;;14.60;99.90;;;;;;4975075;28;20196;-65
2023/03/24 05:55:27;;;;;;;1.52;0.80;;;14.60;99.90;;;;;;4991282;28;20204;-66
2023/03/24 05:58:00;;;;;;;1.88;0.90;;;14.50;99.90;;;;;;4982244;28;20264;-66
2023/03/24 06:00:29;;;;;;;1.42;0.75;;;14.50;99.90;;;;;;4979295;28;20165;-67
2023/03/24 06:02:58;;;;;;;0.85;0.70;;;14.50;99.90;;;;;;4979077;28;20210;-66
2023/03/24 06:05:26;;;;;;;1.80;1.08;;;14.50;99.90;;;;;;4979229;28;20176;-66
2023/03/24 06:07:57;;;;;;;1.40;1.00;;;14.50;99.90;;;;;;4977008;28;20207;-67
2023/03/24 06:10:30;;;;;;;1.13;0.80;;;14.50;99.90;;;;;;4973213;28;20176;-67
2023/03/24 06:12:55;;;;;;;1.60;0.90;;;14.50;99.90;;;;;;4995375;28;20196;-66
2023/03/24 06:15:26;;;;;;;2.20;1.08;;;14.60;99.90;;;;;;4979241;28;20210;-68
2023/03/24 06:17:53;;;;;;;2.45;1.00;;;14.60;99.90;;;;;;4979202;28;20207;-67
2023/03/24 06:20:19;;;;;;;2.75;1.00;;;14.60;99.90;;;;;;4995229;28;20195;-67
2023/03/24 06:22:48;;;;;;;1.80;0.80;;;14.60;99.90;;;;;;4995115;28;20186;-67
2023/03/24 06:25:20;;;;;;;1.88;1.00;;;14.60;99.90;;;;;;4980247;28;20203;-65
2023/03/24 06:27:46;;;;;;;1.63;1.00;;;14.60;99.90;;;;;;4980702;28;20207;-65
2023/03/24 06:30:16;;;;;;;3.10;0.80;;;14.60;99.90;;;;;;4997629;28;20172;-66
2023/03/24 06:32:46;;;;;;;1.77;0.90;;;14.60;99.90;;;;;;4994489;28;20286;-67
2023/03/24 06:35:15;;;;;;;1.48;1.00;;;14.60;99.90;;;;;;4978600;28;20207;-66
2023/03/24 06:37:42;;;;;;;1.83;1.00;;;14.60;99.90;;;;;;4978066;28;20206;-66
2023/03/24 06:40:14;;;;;;;1.52;1.10;;;14.60;99.90;;;;;;4978115;28;20204;-65
2023/03/24 06:42:41;;;;;;;2.30;1.10;;;14.60;99.90;;;;;;4981438;28;20247;-66
2023/03/24 06:45:09;;;;;;;1.33;0.88;;;14.60;99.90;;;;;;4994576;28;20218;-67
2023/03/24 06:47:36;;;;;;;3.10;1.15;;;14.60;99.90;;;;;;4994569;28;20180;-67
2023/03/24 06:50:04;;;;;;;4.20;1.40;;;14.60;99.90;;;;;;4978245;28;20191;-67
2023/03/24 06:52:31;;;;;;;3.08;1.35;;;14.60;99.90;;;;;;4994689;28;20247;-66
2023/03/24 06:54:57;;;;;;;2.97;1.17;;;14.60;99.90;;;;;;4994696;28;20179;-65
2023/03/24 06:57:23;;;;;;;1.65;1.00;;;14.60;99.90;;;;;;4994716;28;20180;-66
2023/03/24 06:59:49;;;;;;;2.20;1.00;;;14.60;99.90;;;;;;4981758;28;20187;-66
2023/03/24 07:02:16;;;;;;;3.03;1.08;;;14.60;99.90;;;;;;4978244;28;20268;-66
2023/03/24 07:04:42;;;;;;;1.80;1.10;;;14.50;99.90;;;;;;4978270;28;20207;-66
2023/03/24 07:07:11;;;;;;;1.67;1.10;;;14.50;99.90;;;;;;4988056;28;20186;-68
2023/03/24 07:09:39;;;;;;;2.60;0.90;;;14.60;99.90;;;;;;5014038;28;20175;-66
2023/03/24 07:12:08;;;;;;;1.70;1.10;;;14.60;99.90;;;;;;5013950;28;20254;-66
2023/03/24 07:14:38;;;;;;;1.48;0.80;;;14.50;99.90;;;;;;5010176;28;20180;-67
2023/03/24 07:17:04;;;;;;;2.92;0.93;;;14.50;99.90;;;;;;5006102;28;20266;-66
2023/03/24 07:19:31;;;;;;;1.92;0.82;;;14.50;99.90;;;;;;5009732;28;20235;-66
2023/03/24 07:21:56;;;;;;;2.33;1.15;;;14.50;99.90;;;;;;4994622;28;20204;-66
2023/03/24 07:24:22;;;;;;;2.20;1.02;;;14.50;99.90;;;;;;4994393;28;20204;-65
2023/03/24 07:26:48;;;;;;;2.92;1.73;;;14.50;99.90;;;;;;4994638;28;20187;-66
2023/03/24 07:29:14;;;;;;;3.50;1.10;;;14.50;99.90;;;;;;4994263;28;20215;-65
2023/03/24 07:31:40;;;;;;;4.25;1.30;;;14.40;99.90;;;;;;4994065;28;20180;-65
2023/03/24 07:34:08;;;;;;;2.60;1.27;;;14.50;99.90;;;;;;4994025;28;20184;-66
2023/03/24 07:36:36;;;;;;;3.95;1.23;;;14.40;99.90;;;;;;4977924;28;20258;-66
2023/03/24 07:39:03;;;;;;;2.95;1.20;;;14.40;99.90;;;;;;4984082;28;20226;-66
2023/03/24 07:41:31;;;;;;;1.52;1.00;;;14.30;99.90;;;;;;5014021;28;20175;-66
2023/03/24 07:43:59;;;;;;;4.15;1.55;;;14.30;99.90;;;;;;5006610;28;20208;-66
2023/03/24 07:46:27;;;;;;;2.97;1.15;;;14.30;99.90;;;;;;4977924;28;20176;-65
2023/03/24 07:48:55;;;;;;;1.95;1.10;;;14.20;99.90;;;;;;4984758;28;20190;-66
2023/03/24 07:51:21;;;;;;;2.63;1.23;;;14.20;99.90;;;;;;5013660;28;20199;-66
2023/03/24 07:53:49;;;;;;;2.60;1.00;;;14.20;99.90;;;;;;5013294;28;20277;-67
2023/03/24 07:56:14;;;;;;;2.83;0.95;;;14.20;99.90;;;;;;5011325;28;20191;-65
2023/03/24 07:58:41;;;;;;;2.63;1.00;;;14.10;99.90;;;;;;4977786;28;20183;-65
2023/03/24 08:01:09;;;;;;;3.40;1.20;;;14.10;99.90;;;;;;4977679;28;20255;-66
2023/03/24 08:03:39;;;;;;;2.85;1.20;;;14.10;99.90;;;;;;4977533;28;20196;-66
2023/03/24 08:06:08;;;;;;;2.15;1.30;;;14.10;99.90;;;;;;4978214;28;20168;-68
2023/03/24 08:08:36;;;;;;;3.33;1.20;;;14.10;99.90;;;;;;4992937;28;20207;-66
2023/03/24 08:11:03;;;;;;;2.08;1.13;;;14.10;99.90;;;;;;5012953;28;20175;-65
2023/03/24 08:13:32;;;;;;;2.88;0.98;;;14.10;99.90;;;;;;5012481;28;20195;-66
2023/03/24 08:16:01;;;;;;;5.15;1.17;;;14.10;99.90;;;;;;5008945;28;20180;-66
2023/03/24 08:18:31;;;;;;;2.80;1.08;;;14.10;99.90;;;;;;4977289;28;20247;-66
2023/03/24 08:21:01;;;;;;;2.53;1.15;;;14.10;99.90;;;;;;4975980;28;20291;-66
2023/03/24 08:23:27;;;;;;;3.33;1.27;;;14.10;99.90;;;;;;4977311;28;20179;-65
2023/03/24 08:25:52;;;;;;;3.35;1.35;;;14.10;99.90;;;;;;4977107;28;20188;-65
2023/03/24 08:28:21;;;;;;;3.03;1.20;;;14.10;99.90;;;;;;4993039;28;20176;-66
2023/03/24 08:30:46;;;;;;;1.63;0.90;;;14.10;99.90;;;;;;4990606;28;20184;-66
2023/03/24 08:33:14;;;;;;;3.47;1.17;;;14.20;99.90;;;;;;4990446;28;20203;-65
2023/03/24 08:35:39;;;;;;;2.80;1.20;;;14.20;99.90;;;;;;4993221;28;20174;-65
2023/03/24 08:38:07;;;;;;;1.35;0.88;;;14.30;99.90;;;;;;4993064;28;20176;-66
2023/03/24 08:40:33;;;;;;;2.80;1.40;;;14.30;99.90;;;;;;4973277;28;20228;-66
2023/03/24 08:43:08;;;;;;;3.33;1.13;;;14.40;99.90;;;;;;4992251;28;20187;-67
2023/03/24 08:45:37;;;;;;;2.95;1.30;;;14.40;99.90;;;;;;4976894;28;20183;-67
2023/03/24 08:48:06;;;;;;;3.22;1.05;;;14.50;99.90;;;;;;4976552;28;20203;-67
2023/03/24 08:50:37;;;;;;;4.78;1.20;;;14.50;99.90;;;;;;4992649;28;20183;-66
2023/03/24 08:53:06;;;;;;;3.72;1.30;;;14.60;99.90;;;;;;4992368;28;20381;-67
2023/03/24 08:55:36;;;;;;;2.42;1.20;;;14.60;99.90;;;;;;4992709;28;20176;-65
2023/03/24 08:58:02;;;;;;;2.08;1.17;;;14.60;99.90;;;;;;4975040;28;20223;-65
2023/03/24 09:00:27;;;;;;;2.72;1.10;;;14.60;99.90;;;;;;4992717;28;20196;-66
2023/03/24 09:02:55;;;;;;;3.40;1.30;;;14.60;99.90;;;;;;4992766;28;20301;-66
2023/03/24 09:05:22;;;;;;;3.60;1.15;;;14.70;99.90;;;;;;4992789;28;20211;-66
2023/03/24 09:07:51;;;;;;;3.53;1.10;;;14.70;99.90;;;;;;4992669;28;20188;-66
2023/03/24 09:10:17;;;;;;;5.28;1.25;;;14.80;99.90;;;;;;4992807;28;20176;-66
2023/03/24 09:12:46;;;;;;;3.53;1.33;;;14.70;99.90;;;;;;4992212;28;20266;-67
2023/03/24 09:15:12;;;;;;;3.33;1.30;;;14.80;99.90;;;;;;4982063;28;20180;-67
2023/03/24 09:17:41;;;;;;;2.95;0.90;;;14.80;99.90;;;;;;4976550;28;20168;-66
2023/03/24 09:20:10;;;;;;;2.95;0.95;;;14.80;99.90;;;;;;4976226;28;20195;-65
2023/03/24 09:22:44;;;;;;;4.80;1.23;;;14.90;99.90;;;;;;4976076;28;20235;-66
2023/03/24 09:25:13;;;;;;;2.50;1.23;;;15.00;99.90;;;;;;4976097;28;20199;-65
2023/03/24 09:27:39;;;;;;;5.47;1.20;;;15.00;99.90;;;;;;4975649;28;20180;-66
2023/03/24 09:30:08;;;;;;;3.28;1.88;;;15.20;99.90;;;;;;4975922;28;20190;-65
2023/03/24 09:32:36;;;;;;;4.85;1.60;;;15.30;99.90;;;;;;4982949;28;20202;-66
2023/03/24 09:35:07;;;;;;;3.25;1.20;;;15.30;99.90;;;;;;5011806;28;20221;-66
2023/03/24 09:37:34;;;;;;;4.20;0.98;;;15.40;99.90;;;;;;5011482;28;20199;-65
2023/03/24 09:40:03;;;;;;;3.40;1.15;;;15.50;99.90;;;;;;5011686;28;20176;-66
2023/03/24 09:42:35;;;;;;;5.78;1.23;;;15.60;99.90;;;;;;4994240;28;20300;-66
2023/03/24 09:45:12;;;;;;;6.07;1.27;;;15.60;99.90;;;;;;4975859;28;20183;-66
2023/03/24 09:47:47;;;;;;;5.55;1.13;;;15.70;99.90;;;;;;4975885;28;20195;-66
2023/03/24 09:50:50;;;;;;;3.88;1.52;;;15.80;99.90;;;;;;4991968;28;20203;-67
2023/03/24 09:53:38;;;;;;;4.93;1.20;;;16.00;99.90;;;;;;4973227;28;20214;-66
2023/03/24 09:56:12;;;;;;;4.85;1.55;;;16.60;99.90;;;;;;4975657;28;20202;-66
2023/03/24 09:58:40;;;;;;;4.03;1.40;;;17.10;99.90;;;;;;4975757;28;20176;-67
2023/03/24 10:01:13;;;;;;;3.70;1.30;;;17.40;99.90;;;;;;4976646;28;20175;-67
2023/03/24 10:03:39;;;;;;;2.85;1.20;;;17.60;99.90;;;;;;4975769;28;20176;-67
2023/03/24 10:06:27;;;;;;;5.22;1.25;;;17.80;99.90;;;;;;4975530;28;20242;-66
2023/03/24 10:09:18;;;;;;;4.25;1.00;;;18.00;99.90;;;;;;4975616;28;20290;-66
2023/03/24 10:11:48;;;;;;;2.72;1.10;;;18.30;99.90;;;;;;4975299;28;20180;-67
2023/03/24 10:14:31;;;;;;;2.50;1.10;;;18.50;99.90;;;;;;4975671;28;20184;-66
2023/03/24 10:17:12;;;;;;;4.22;1.10;;;18.40;99.90;;;;;;4975851;28;20224;-66
2023/03/24 10:20:11;;;;;;;3.50;1.20;;;18.40;99.90;;;;;;4975537;28;20243;-66
2023/03/24 10:23:01;;;;;;;3.65;1.38;;;18.70;99.90;;;;;;4962781;28;20191;-67
2023/03/24 10:26:09;;;;;;;5.15;1.08;;;19.00;99.90;;;;;;4974170;28;20185;-66
2023/03/24 10:29:03;;;;;;;4.88;1.40;;;19.50;99.90;;;;;;4991178;28;20226;-68
2023/03/24 10:31:32;;;;;;;3.55;1.17;;;19.70;99.90;;;;;;4990944;28;20250;-66
2023/03/24 10:33:59;;;;;;;5.35;1.40;;;19.70;99.90;;;;;;4990478;28;20212;-66
2023/03/24 10:36:27;;;;;;;5.22;1.15;;;19.80;99.90;;;;;;4974965;28;20172;-66
2023/03/24 10:38:55;;;;;;;3.92;1.42;;;19.80;99.90;;;;;;4974953;28;20258;-65
2023/03/24 10:41:27;;;;;;;2.50;1.05;;;19.80;99.90;;;;;;4988900;28;20203;-66
2023/03/24 10:43:55;;;;;;;3.35;1.20;;;19.90;99.90;;;;;;4974021;28;20177;-65
2023/03/24 10:46:24;;;;;;;6.07;1.50;;;19.90;99.90;;;;;;4975189;28;20180;-65
2023/03/24 10:49:10;;;;;;;4.38;1.15;;;19.90;99.90;;;;;;4978625;28;20187;-66
2023/03/24 10:51:48;;;;;;;3.15;1.10;;;19.80;99.90;;;;;;4971129;28;20200;-66
2023/03/24 10:54:20;;;;;;;3.95;1.20;;;19.80;99.90;;;;;;4966914;28;20215;-66
2023/03/24 10:56:51;;;;;;;3.92;1.05;;;19.80;99.90;;;;;;4976433;28;20207;-67
2023/03/24 10:59:27;;;;;;;2.95;1.10;;;19.90;99.90;;;;;;4994481;28;20199;-67
2023/03/24 11:02:08;;;;;;;4.15;1.23;;;20.00;99.90;;;;;;4995050;28;20196;-66
2023/03/24 11:04:38;;;;;;;5.70;1.30;;;20.00;99.90;;;;;;4994863;28;20458;-67
2023/03/24 11:07:20;;;;;;;2.95;1.20;;;20.00;99.90;;;;;;4994826;28;20210;-67
2023/03/24 11:10:09;;;;;;;4.35;1.48;;;20.10;99.90;;;;;;4994629;28;20172;-66
2023/03/24 11:12:43;;;;;;;3.42;1.23;;;20.10;99.90;;;;;;4995123;28;20446;-65
2023/03/24 11:15:11;;;;;;;2.97;1.15;;;20.10;99.60;;;;;;4978547;28;20263;-65
2023/03/24 11:17:41;;;;;;;2.92;1.10;;;20.10;99.90;;;;;;4994429;28;20204;-66
2023/03/24 11:20:31;;;;;;;2.40;0.93;;;20.20;99.90;;;;;;4994242;28;20237;-66
2023/03/24 11:23:24;;;;;;;3.53;0.90;;;20.30;99.90;;;;;;4993916;28;20219;-66
2023/03/24 11:26:06;;;;;;;3.50;1.35;;;20.40;99.90;;;;;;4974224;28;20232;-66
2023/03/24 11:28:55;;;;;;;4.82;1.20;;;20.40;99.90;;;;;;4958719;29;20247;-66
2023/03/24 11:31:24;;;;;;;2.50;0.90;;;20.20;99.90;;;;;;4980382;28;20303;-66
2023/03/24 11:33:55;;;;;;;2.53;1.10;;;20.10;99.90;;;;;;4977348;28;20271;-66
2023/03/24 11:36:31;;;;;;;2.25;0.93;;;20.00;99.90;;;;;;4978480;28;20156;-66
2023/03/24 11:39:12;;;;;;;2.42;0.95;;;19.90;99.00;;;;;;4993500;28;20206;-66
2023/03/24 11:41:42;;;;;;;2.72;1.10;;;19.80;99.40;;;;;;4977260;28;20161;-66
2023/03/24 11:44:18;;;;;;;3.00;1.10;;;19.60;99.60;;;;;;4977244;28;20200;-65
2023/03/24 11:46:48;;;;;;;3.20;1.13;;;19.30;99.10;;;;;;4973926;28;20192;-66
2023/03/24 11:49:19;;;;;;;2.75;1.00;;;19.10;99.80;;;;;;4999756;28;20187;-67
2023/03/24 11:51:48;;;;;;;3.75;1.10;;;19.00;99.80;;;;;;5012683;28;20197;-67
2023/03/24 11:54:17;;;;;;;3.20;1.00;;;18.90;99.90;;;;;;4996553;28;20176;-65
2023/03/24 11:56:57;;;;;;;2.10;0.82;;;18.90;99.90;;;;;;4992938;28;20270;-65
2023/03/24 11:59:35;;;;;;;2.55;1.00;;;19.00;99.90;;;;;;4976991;28;20191;-65
2023/03/24 12:02:07;;;;;;;2.10;0.90;;;19.20;99.90;;;;;;4976720;28;20203;-65
2023/03/24 12:04:44;;;;;;;3.47;0.85;;;19.30;99.90;;;;;;4993187;28;20180;-66
2023/03/24 12:07:34;;;;;;;2.55;1.23;;;19.30;97.40;;;;;;4999007;28;20250;-66
2023/03/24 12:10:37;;;;;;;4.20;1.35;;;19.30;99.70;;;;;;5002214;28;20200;-66
2023/03/24 12:13:11;;;;;;;2.92;1.05;;;19.30;97.70;;;;;;4992959;28;20214;-66
2023/03/24 12:16:03;;;;;;;3.33;1.00;;;19.10;98.30;;;;;;4993006;28;20199;-66
2023/03/24 12:19:00;;;;;;;4.28;0.82;;;19.00;97.90;;;;;;4992984;28;20179;-66
2023/03/24 12:21:46;;;;;;;4.03;1.10;;;18.90;97.80;;;;;;4992966;28;20203;-66
2023/03/24 12:24:31;;;;;;;2.53;1.20;;;18.80;98.00;;;;;;4973311;28;20173;-66
2023/03/24 12:27:02;;;;;;;2.15;0.80;;;18.70;97.00;;;;;;4973567;28;20256;-66
2023/03/24 12:29:59;;;;;;;1.75;0.93;;;18.60;98.40;;;;;;4973319;28;20183;-65
2023/03/24 12:32:36;;;;;;;4.30;1.20;;;18.60;97.80;;;;;;4975495;28;20283;-66
2023/03/24 12:35:16;;;;;;;4.32;1.17;;;18.60;99.50;;;;;;5012229;28;20206;-66
2023/03/24 12:37:55;;;;;;;2.45;0.95;;;18.60;99.30;;;;;;5012297;28;20167;-66
2023/03/24 12:40:45;;;;;;;2.20;0.82;;;18.60;99.30;;;;;;4997787;28;20176;-66
2023/03/24 12:43:23;;;;;;;4.60;1.15;;;18.60;98.90;;;;;;5003593;28;20176;-66
2023/03/24 12:45:54;;;;;;;3.50;1.20;;;18.70;98.80;;;;;;4992654;28;20179;-66
2023/03/24 12:48:34;;;;;;;2.58;1.10;;;18.90;99.90;;;;;;4992483;28;20168;-67
2023/03/24 12:51:20;;;;;;;4.20;1.00;;;19.10;99.90;;;;;;4992706;28;20207;-66
2023/03/24 12:54:12;;;;;;;3.22;1.08;;;19.30;99.90;;;;;;4992850;28;20222;-66
2023/03/24 12:57:08;;;;;;;3.45;0.90;;;19.50;99.50;;;;;;4976914;28;20175;-66
2023/03/24 13:00:09;;;;;;;3.88;1.20;;;19.60;98.60;;;;;;4976125;28;20204;-65
2023/03/24 13:02:40;;;;;;;3.35;1.08;;;19.60;98.00;;;;;;4969190;28;20184;-66
2023/03/24 13:05:16;;;;;;;1.35;0.73;;;19.70;98.90;;;;;;4973374;28;20200;-66
2023/03/24 13:07:46;;;;;;;1.88;0.90;;;19.80;99.50;;;;;;4956974;28;20263;-66
2023/03/24 13:10:21;;;;;;;2.00;0.88;;;20.00;98.70;;;;;;4957448;29;20180;-66
2023/03/24 13:13:04;;;;;;;1.83;0.73;;;20.10;99.20;;;;;;4957205;28;20343;-66
2023/03/24 13:15:29;;;;;;;1.25;0.75;;;20.20;98.30;;;;;;4957487;29;20395;-66
2023/03/24 13:18:10;;;;;;;3.45;0.90;;;20.20;98.70;;;;;;4973367;28;20206;-66